createdAt,value
2019-04-07T00:00:28.566Z,1000.77
2019-04-07T00:01:28.424Z,1000.71
2019-04-07T00:02:30.412Z,1000.73
2019-04-07T00:03:28.775Z,1000.73
2019-04-07T00:04:28.161Z,1000.76
2019-04-07T00:05:28.087Z,1000.74
2019-04-07T00:06:27.958Z,1000.72
2019-04-07T00:07:27.876Z,1000.73
2019-04-07T00:08:28.315Z,1000.65
2019-04-07T00:09:27.719Z,1000.69
2019-04-07T00:10:28.644Z,1000.66
2019-04-07T00:11:27.845Z,1000.68
2019-04-07T00:12:27.741Z,1000.67
2019-04-07T00:13:27.375Z,1000.68
2019-04-07T00:14:27.359Z,1000.65
2019-04-07T00:15:27.759Z,1000.64
2019-04-07T00:16:27.130Z,1000.63
2019-04-07T00:17:27.258Z,1000.64
2019-04-07T00:18:27.159Z,1000.61
2019-04-07T00:19:27.178Z,1000.63
2019-04-07T00:20:26.854Z,1000.64
2019-04-07T00:21:26.714Z,1000.62
2019-04-07T00:22:26.639Z,1000.63
2019-04-07T00:23:26.701Z,1000.61
2019-04-07T00:24:26.478Z,1000.59
2019-04-07T00:25:26.381Z,1000.59
2019-04-07T00:26:28.329Z,1000.62
2019-04-07T00:27:26.220Z,1000.60
2019-04-07T00:28:26.190Z,1000.58
2019-04-07T00:29:26.495Z,1000.58
2019-04-07T00:30:25.967Z,1000.57
2019-04-07T00:31:26.421Z,1000.56
2019-04-07T00:32:25.807Z,1000.54
2019-04-07T00:33:25.718Z,1000.55
2019-04-07T00:34:25.757Z,1000.57
2019-04-07T00:35:30.452Z,1000.55
2019-04-07T00:36:25.473Z,1000.54
2019-04-07T00:37:25.433Z,1000.53
2019-04-07T00:38:25.305Z,1000.56
2019-04-07T00:39:25.898Z,1000.53
2019-04-07T00:40:25.250Z,1000.54
2019-04-07T00:41:25.054Z,1000.55
2019-04-07T00:42:25.066Z,1000.51
2019-04-07T00:43:25.177Z,1000.53
2019-04-07T00:44:24.820Z,1000.50
2019-04-07T00:45:25.148Z,1000.53
2019-04-07T00:46:24.642Z,1000.53
2019-04-07T00:47:24.920Z,1000.55
2019-04-07T00:48:24.593Z,1000.53
2019-04-07T00:49:24.650Z,1000.54
2019-04-07T00:50:24.310Z,1000.50
2019-04-07T00:51:24.301Z,1000.49
2019-04-07T00:52:24.815Z,1000.49
2019-04-07T00:53:24.061Z,1000.53
2019-04-07T00:54:24.050Z,1000.51
2019-04-07T00:55:24.278Z,1000.51
2019-04-07T00:56:24.854Z,1000.49
2019-04-07T00:57:23.730Z,1000.55
2019-04-07T00:58:23.752Z,1000.53
2019-04-07T00:59:23.578Z,1000.52
2019-04-07T01:00:23.542Z,1000.53
2019-04-07T01:01:24.438Z,1000.50
2019-04-07T01:02:23.318Z,1000.54
2019-04-07T01:03:23.764Z,1000.53
2019-04-07T01:04:23.192Z,1000.56
2019-04-07T01:05:34.152Z,1000.57
2019-04-07T01:06:22.991Z,1000.55
2019-04-07T01:07:23.389Z,1000.53
2019-04-07T01:08:22.860Z,1000.52
2019-04-07T01:09:23.276Z,1000.54
2019-04-07T01:10:22.694Z,1000.52
2019-04-07T01:11:23.065Z,1000.57
2019-04-07T01:12:22.548Z,1000.54
2019-04-07T01:13:23.101Z,1000.56
2019-04-07T01:14:22.472Z,1000.53
2019-04-07T01:15:22.241Z,1000.54
2019-04-07T01:16:22.229Z,1000.53
2019-04-07T01:17:22.497Z,1000.54
2019-04-07T01:18:22.036Z,1000.54
2019-04-07T01:19:22.679Z,1000.51
2019-04-07T01:20:21.841Z,1000.48
2019-04-07T01:21:21.749Z,1000.50
2019-04-07T01:22:21.895Z,1000.51
2019-04-07T01:23:21.581Z,1000.47
2019-04-07T01:24:21.901Z,1000.47
2019-04-07T01:25:21.516Z,1000.49
2019-04-07T01:26:21.691Z,1000.47
2019-04-07T01:27:21.273Z,1000.49
2019-04-07T01:28:21.165Z,1000.45
2019-04-07T01:29:21.095Z,1000.46
2019-04-07T01:30:21.426Z,1000.48
2019-04-07T01:31:20.959Z,1000.46
2019-04-07T01:32:24.009Z,1000.49
2019-04-07T01:33:20.773Z,1000.48
2019-04-07T01:34:20.751Z,1000.49
2019-04-07T01:35:21.273Z,1000.50
2019-04-07T01:36:20.497Z,1000.46
2019-04-07T01:37:20.950Z,1000.50
2019-04-07T01:38:20.403Z,1000.49
2019-04-07T01:39:20.263Z,1000.52
2019-04-07T01:40:20.891Z,1000.50
2019-04-07T01:41:20.245Z,1000.53
2019-04-07T01:42:20.227Z,1000.50
2019-04-07T01:43:20.084Z,1000.46
2019-04-07T01:44:20.180Z,1000.45
2019-04-07T01:45:20.515Z,1000.43
2019-04-07T01:46:19.771Z,1000.45
2019-04-07T01:47:20.076Z,1000.44
2019-04-07T01:48:19.575Z,1000.43
2019-04-07T01:49:19.476Z,1000.43
2019-04-07T01:50:19.346Z,1000.39
2019-04-07T01:51:19.870Z,1000.38
2019-04-07T01:52:19.603Z,1000.39
2019-04-07T01:53:19.172Z,1000.38
2019-04-07T01:54:19.160Z,1000.37
2019-04-07T01:55:19.086Z,1000.38
2019-04-07T01:56:18.844Z,1000.37
2019-04-07T01:57:18.818Z,1000.37
2019-04-07T01:58:18.677Z,1000.37
2019-04-07T01:59:18.607Z,1000.35
2019-04-07T02:00:18.540Z,1000.38
2019-04-07T02:01:18.430Z,1000.32
2019-04-07T02:02:20.107Z,1000.36
2019-04-07T02:03:18.729Z,1000.35
2019-04-07T02:04:18.286Z,1000.32
2019-04-07T02:05:18.749Z,1000.30
2019-04-07T02:06:18.842Z,1000.31
2019-04-07T02:07:18.318Z,1000.33
2019-04-07T02:08:17.872Z,1000.35
2019-04-07T02:09:18.293Z,1000.31
2019-04-07T02:10:17.782Z,1000.31
2019-04-07T02:11:17.604Z,1000.34
2019-04-07T02:12:18.098Z,1000.31
2019-04-07T02:13:17.510Z,1000.32
2019-04-07T02:14:19.383Z,1000.33
2019-04-07T02:15:17.389Z,1000.29
2019-04-07T02:16:17.186Z,1000.27
2019-04-07T02:17:17.359Z,1000.28
2019-04-07T02:18:17.024Z,1000.28
2019-04-07T02:19:17.422Z,1000.27
2019-04-07T02:20:17.957Z,1000.27
2019-04-07T02:21:17.374Z,1000.25
2019-04-07T02:22:16.743Z,1000.22
2019-04-07T02:23:16.612Z,1000.25
2019-04-07T02:24:16.584Z,1000.23
2019-04-07T02:25:16.453Z,1000.24
2019-04-07T02:26:16.464Z,1000.22
2019-04-07T02:27:16.477Z,1000.23
2019-04-07T02:28:16.499Z,1000.22
2019-04-07T02:29:16.122Z,1000.24
2019-04-07T02:30:16.266Z,1000.26
2019-04-07T02:31:16.990Z,1000.25
2019-04-07T02:32:15.863Z,1000.25
2019-04-07T02:33:16.562Z,1000.27
2019-04-07T02:34:15.707Z,1000.26
2019-04-07T02:35:16.578Z,1000.28
2019-04-07T02:36:24.780Z,1000.33
2019-04-07T02:37:15.454Z,1000.29
2019-04-07T02:38:17.711Z,1000.30
2019-04-07T02:39:15.368Z,1000.34
2019-04-07T02:40:15.191Z,1000.36
2019-04-07T02:41:15.916Z,1000.32
2019-04-07T02:42:15.340Z,1000.39
2019-04-07T02:43:15.875Z,1000.32
2019-04-07T02:44:15.614Z,1000.41
2019-04-07T02:45:15.085Z,1000.37
2019-04-07T02:46:14.825Z,1000.36
2019-04-07T02:47:14.804Z,1000.43
2019-04-07T02:48:14.564Z,1000.45
2019-04-07T02:49:14.455Z,1000.40
2019-04-07T02:50:15.397Z,1000.37
2019-04-07T02:51:15.306Z,1000.42
2019-04-07T02:52:14.624Z,1000.41
2019-04-07T02:53:14.831Z,1000.43
2019-04-07T02:54:14.131Z,1000.42
2019-04-07T02:55:14.392Z,1000.47
2019-04-07T02:56:13.856Z,1000.47
2019-04-07T02:57:14.226Z,1000.46
2019-04-07T02:58:13.788Z,1000.43
2019-04-07T02:59:14.563Z,1000.46
2019-04-07T03:00:13.936Z,1000.47
2019-04-07T03:01:13.814Z,1000.46
2019-04-07T03:02:14.211Z,1000.50
2019-04-07T03:03:14.092Z,1000.49
2019-04-07T03:04:13.202Z,1000.46
2019-04-07T03:05:13.823Z,1000.45
2019-04-07T03:06:20.772Z,1000.47
2019-04-07T03:07:13.585Z,1000.48
2019-04-07T03:08:13.888Z,1000.46
2019-04-07T03:09:12.896Z,1000.51
2019-04-07T03:10:13.034Z,1000.48
2019-04-07T03:11:12.959Z,1000.47
2019-04-07T03:12:13.630Z,1000.49
2019-04-07T03:13:12.762Z,1000.53
2019-04-07T03:14:12.628Z,1000.55
2019-04-07T03:15:13.055Z,1000.45
2019-04-07T03:16:12.187Z,1000.56
2019-04-07T03:17:12.106Z,1000.56
2019-04-07T03:18:12.845Z,1000.54
2019-04-07T03:19:13.052Z,1000.58
2019-04-07T03:20:12.092Z,1000.58
2019-04-07T03:21:13.008Z,1000.60
2019-04-07T03:22:11.693Z,1000.59
2019-04-07T03:23:11.631Z,1000.64
2019-04-07T03:24:12.378Z,1000.63
2019-04-07T03:25:11.479Z,1000.60
2019-04-07T03:26:11.355Z,1000.63
2019-04-07T03:27:11.355Z,1000.61
2019-04-07T03:28:11.675Z,1000.60
2019-04-07T03:29:11.849Z,1000.61
2019-04-07T03:30:11.431Z,1000.60
2019-04-07T03:31:12.641Z,1000.67
2019-04-07T03:32:14.649Z,1000.65
2019-04-07T03:33:13.590Z,1000.62
2019-04-07T03:34:13.406Z,1000.65
2019-04-07T03:35:12.358Z,1000.59
2019-04-07T03:36:12.800Z,1000.58
2019-04-07T03:37:22.623Z,1000.62
2019-04-07T03:38:10.351Z,1000.55
2019-04-07T03:39:10.845Z,1000.60
2019-04-07T03:40:10.245Z,1000.61
2019-04-07T03:41:10.102Z,1000.61
2019-04-07T03:42:10.722Z,1000.60
2019-04-07T03:43:10.039Z,1000.62
2019-04-07T03:44:09.853Z,1000.61
2019-04-07T03:45:10.135Z,1000.60
2019-04-07T03:46:09.685Z,1000.62
2019-04-07T03:47:10.212Z,1000.62
2019-04-07T03:48:10.275Z,1000.63
2019-04-07T03:49:10.057Z,1000.63
2019-04-07T03:50:10.202Z,1000.63
2019-04-07T03:51:09.375Z,1000.66
2019-04-07T03:52:09.924Z,1000.67
2019-04-07T03:53:09.097Z,1000.66
2019-04-07T03:54:09.107Z,1000.65
2019-04-07T03:55:10.045Z,1000.71
2019-04-07T03:56:08.845Z,1000.68
2019-04-07T03:57:08.961Z,1000.71
2019-04-07T03:58:08.678Z,1000.71
2019-04-07T03:59:08.603Z,1000.74
2019-04-07T04:00:08.591Z,1000.72
2019-04-07T04:01:08.431Z,1000.73
2019-04-07T04:02:11.005Z,1000.76
2019-04-07T04:03:08.757Z,1000.73
2019-04-07T04:04:08.228Z,1000.79
2019-04-07T04:05:08.110Z,1000.75
2019-04-07T04:06:09.078Z,1000.80
2019-04-07T04:07:20.171Z,1000.79
2019-04-07T04:08:07.841Z,1000.76
2019-04-07T04:09:08.283Z,1000.76
2019-04-07T04:10:08.359Z,1000.75
2019-04-07T04:11:07.599Z,1000.72
2019-04-07T04:12:08.448Z,1000.74
2019-04-07T04:13:07.416Z,1000.72
2019-04-07T04:14:07.945Z,1000.73
2019-04-07T04:15:07.321Z,1000.73
2019-04-07T04:16:07.962Z,1000.76
2019-04-07T04:17:07.083Z,1000.77
2019-04-07T04:18:07.098Z,1000.76
2019-04-07T04:19:06.923Z,1000.76
2019-04-07T04:20:06.942Z,1000.77
2019-04-07T04:21:07.035Z,1000.74
2019-04-07T04:22:07.420Z,1000.77
2019-04-07T04:23:06.591Z,1000.77
2019-04-07T04:24:06.507Z,1000.79
2019-04-07T04:25:12.614Z,1000.78
2019-04-07T04:26:06.516Z,1000.79
2019-04-07T04:27:06.733Z,1000.79
2019-04-07T04:28:06.635Z,1000.82
2019-04-07T04:29:06.085Z,1000.78
2019-04-07T04:30:06.899Z,1000.84
2019-04-07T04:31:15.469Z,1000.80
2019-04-07T04:32:05.971Z,1000.83
2019-04-07T04:33:06.234Z,1000.87
2019-04-07T04:34:05.738Z,1000.87
2019-04-07T04:35:06.628Z,1000.89
2019-04-07T04:36:05.695Z,1000.87
2019-04-07T04:37:05.416Z,1000.90
2019-04-07T04:38:06.116Z,1000.89
2019-04-07T04:39:05.248Z,1000.89
2019-04-07T04:40:05.196Z,1000.92
2019-04-07T04:41:05.106Z,1000.94
2019-04-07T04:42:05.516Z,1000.92
2019-04-07T04:43:04.913Z,1000.93
2019-04-07T04:44:06.640Z,1000.91
2019-04-07T04:45:04.774Z,1000.94
2019-04-07T04:46:08.115Z,1000.94
2019-04-07T04:47:04.835Z,1000.90
2019-04-07T04:48:04.532Z,1000.95
2019-04-07T04:49:04.402Z,1000.94
2019-04-07T04:50:06.042Z,1000.95
2019-04-07T04:51:04.238Z,1000.98
2019-04-07T04:52:05.070Z,1000.98
2019-04-07T04:53:04.274Z,1001.01
2019-04-07T04:54:05.030Z,1001.01
2019-04-07T04:55:04.041Z,1001.02
2019-04-07T04:56:03.807Z,1001.06
2019-04-07T04:57:06.173Z,1001.01
2019-04-07T04:58:04.172Z,1001.05
2019-04-07T04:59:04.094Z,1001.12
2019-04-07T05:00:03.889Z,1001.09
2019-04-07T05:01:04.396Z,1001.11
2019-04-07T05:02:03.302Z,1001.15
2019-04-07T05:03:03.226Z,1001.08
2019-04-07T05:04:03.891Z,1001.13
2019-04-07T05:05:03.914Z,1001.11
2019-04-07T05:06:03.651Z,1001.12
2019-04-07T05:07:05.688Z,1001.14
2019-04-07T05:08:04.489Z,1001.14
2019-04-07T05:09:03.396Z,1001.15
2019-04-07T05:10:02.761Z,1001.18
2019-04-07T05:11:03.127Z,1001.20
2019-04-07T05:12:04.791Z,1001.17
2019-04-07T05:13:02.375Z,1001.22
2019-04-07T05:14:02.364Z,1001.24
2019-04-07T05:15:02.204Z,1001.19
2019-04-07T05:16:02.701Z,1001.24
2019-04-07T05:17:02.039Z,1001.24
2019-04-07T05:18:01.962Z,1001.26
2019-04-07T05:19:02.628Z,1001.29
2019-04-07T05:20:02.564Z,1001.32
2019-04-07T05:21:01.716Z,1001.32
2019-04-07T05:22:02.433Z,1001.33
2019-04-07T05:23:01.818Z,1001.32
2019-04-07T05:24:01.472Z,1001.32
2019-04-07T05:25:02.255Z,1001.35
2019-04-07T05:26:01.298Z,1001.36
2019-04-07T05:27:01.831Z,1001.35
2019-04-07T05:28:01.242Z,1001.38
2019-04-07T05:29:01.450Z,1001.36
2019-04-07T05:30:01.208Z,1001.38
2019-04-07T05:31:00.875Z,1001.39
2019-04-07T05:32:01.442Z,1001.36
2019-04-07T05:33:00.953Z,1001.47
2019-04-07T05:34:00.666Z,1001.45
2019-04-07T05:35:01.061Z,1001.46
2019-04-07T05:36:00.552Z,1001.48
2019-04-07T05:37:01.191Z,1001.46
2019-04-07T05:38:04.053Z,1001.47
2019-04-07T05:39:00.795Z,1001.45
2019-04-07T05:40:02.715Z,1001.52
2019-04-07T05:41:00.321Z,1001.51
2019-04-07T05:42:00.208Z,1001.53
2019-04-07T05:42:59.953Z,1001.51
2019-04-07T05:43:59.765Z,1001.57
2019-04-07T05:44:59.712Z,1001.59
2019-04-07T05:45:59.610Z,1001.59
2019-04-07T05:46:59.522Z,1001.63
2019-04-07T05:48:00.043Z,1001.66
2019-04-07T05:49:00.420Z,1001.64
2019-04-07T05:49:59.992Z,1001.67
2019-04-07T05:51:00.810Z,1001.70
2019-04-07T05:52:02.859Z,1001.71
2019-04-07T05:52:59.140Z,1001.75
2019-04-07T05:54:05.920Z,1001.74
2019-04-07T05:54:58.845Z,1001.79
2019-04-07T05:55:58.795Z,1001.83
2019-04-07T05:57:01.163Z,1001.82
2019-04-07T05:57:58.720Z,1001.81
2019-04-07T05:58:58.512Z,1001.85
2019-04-07T05:59:59.225Z,1001.89
2019-04-07T06:00:58.698Z,1001.91
2019-04-07T06:02:01.465Z,1001.91
2019-04-07T06:02:58.303Z,1001.94
2019-04-07T06:03:58.089Z,1001.95
2019-04-07T06:04:59.356Z,1001.99
2019-04-07T06:05:58.077Z,1001.97
2019-04-07T06:06:58.117Z,1001.92
2019-04-07T06:08:00.868Z,1001.94
2019-04-07T06:08:57.680Z,1001.98
2019-04-07T06:09:57.593Z,1001.98
2019-04-07T06:11:00.394Z,1002.01
2019-04-07T06:11:57.712Z,1002.04
2019-04-07T06:12:57.394Z,1002.05
2019-04-07T06:13:57.489Z,1002.09
2019-04-07T06:14:57.322Z,1002.07
2019-04-07T06:15:57.561Z,1002.05
2019-04-07T06:16:57.008Z,1002.13
2019-04-07T06:18:00.558Z,1002.16
2019-04-07T06:18:56.852Z,1002.15
2019-04-07T06:19:56.884Z,1002.12
2019-04-07T06:20:56.686Z,1002.12
2019-04-07T06:21:57.027Z,1002.14
2019-04-07T06:22:56.526Z,1002.12
2019-04-07T06:23:59.879Z,1002.14
2019-04-07T06:24:56.449Z,1002.17
2019-04-07T06:25:58.954Z,1002.17
2019-04-07T06:26:56.552Z,1002.15
2019-04-07T06:27:56.818Z,1002.17
2019-04-07T06:28:58.509Z,1002.13
2019-04-07T06:29:59.588Z,1002.12
2019-04-07T06:30:59.184Z,1002.20
2019-04-07T06:31:56.229Z,1002.19
2019-04-07T06:32:55.687Z,1002.16
2019-04-07T06:33:55.613Z,1002.20
2019-04-07T06:34:55.564Z,1002.21
2019-04-07T06:35:56.168Z,1002.19
2019-04-07T06:36:56.386Z,1002.22
2019-04-07T06:37:57.870Z,1002.29
2019-04-07T06:38:55.284Z,1002.29
2019-04-07T06:39:55.648Z,1002.30
2019-04-07T06:40:57.770Z,1002.28
2019-04-07T06:41:55.066Z,1002.28
2019-04-07T06:42:55.653Z,1002.32
2019-04-07T06:44:08.245Z,1002.34
2019-04-07T06:44:55.392Z,1002.37
2019-04-07T06:45:55.077Z,1002.39
2019-04-07T06:46:58.582Z,1002.43
2019-04-07T06:47:55.239Z,1002.44
2019-04-07T06:48:55.095Z,1002.39
2019-04-07T06:49:54.315Z,1002.37
2019-04-07T06:50:58.313Z,1002.39
2019-04-07T06:51:54.477Z,1002.45
2019-04-07T06:52:54.247Z,1002.47
2019-04-07T06:53:54.079Z,1002.51
2019-04-07T06:54:56.179Z,1002.48
2019-04-07T06:55:54.040Z,1002.50
2019-04-07T06:56:53.866Z,1002.50
2019-04-07T06:57:53.817Z,1002.55
2019-04-07T06:58:53.715Z,1002.52
2019-04-07T06:59:53.516Z,1002.57
2019-04-07T07:00:55.082Z,1002.53
2019-04-07T07:01:56.375Z,1002.53
2019-04-07T07:02:53.273Z,1002.64
2019-04-07T07:03:53.809Z,1002.60
2019-04-07T07:04:53.114Z,1002.60
2019-04-07T07:05:53.658Z,1002.63
2019-04-07T07:06:55.684Z,1002.63
2019-04-07T07:07:53.094Z,1002.64
2019-04-07T07:08:55.399Z,1002.67
2019-04-07T07:09:54.827Z,1002.64
2019-04-07T07:10:53.155Z,1002.65
2019-04-07T07:11:52.551Z,1002.65
2019-04-07T07:12:52.533Z,1002.69
2019-04-07T07:13:53.025Z,1002.70
2019-04-07T07:14:52.833Z,1002.72
2019-04-07T07:15:52.879Z,1002.70
2019-04-07T07:16:52.169Z,1002.74
2019-04-07T07:17:56.013Z,1002.79
2019-04-07T07:18:54.667Z,1002.79
2019-04-07T07:19:55.124Z,1002.81
2019-04-07T07:20:51.842Z,1002.82
2019-04-07T07:21:52.258Z,1002.82
2019-04-07T07:22:51.726Z,1002.86
2019-04-07T07:23:52.452Z,1002.86
2019-04-07T07:24:55.689Z,1002.89
2019-04-07T07:25:51.951Z,1002.91
2019-04-07T07:26:51.465Z,1002.87
2019-04-07T07:27:51.289Z,1002.88
2019-04-07T07:28:52.068Z,1002.88
2019-04-07T07:29:53.593Z,1002.89
2019-04-07T07:30:52.664Z,1002.89
2019-04-07T07:31:52.810Z,1002.90
2019-04-07T07:32:50.909Z,1002.92
2019-04-07T07:33:50.850Z,1002.92
2019-04-07T07:34:50.845Z,1002.96
2019-04-07T07:35:50.827Z,1002.94
2019-04-07T07:36:53.470Z,1002.91
2019-04-07T07:37:50.996Z,1002.92
2019-04-07T07:38:59.002Z,1002.92
2019-04-07T07:39:50.826Z,1002.93
2019-04-07T07:40:50.274Z,1002.96
2019-04-07T07:41:51.830Z,1002.97
2019-04-07T07:42:51.116Z,1003.00
2019-04-07T07:43:50.115Z,1002.98
2019-04-07T07:44:50.377Z,1003.03
2019-04-07T07:45:50.153Z,1003.05
2019-04-07T07:46:51.527Z,1003.02
2019-04-07T07:47:53.768Z,1003.08
2019-04-07T07:48:50.023Z,1003.08
2019-04-07T07:49:49.745Z,1003.11
2019-04-07T07:50:50.135Z,1003.12
2019-04-07T07:51:49.439Z,1003.13
2019-04-07T07:52:53.491Z,1003.09
2019-04-07T07:53:49.274Z,1003.09
2019-04-07T07:54:49.563Z,1003.12
2019-04-07T07:55:49.698Z,1003.15
2019-04-07T07:56:50.509Z,1003.16
2019-04-07T07:57:49.150Z,1003.13
2019-04-07T07:58:49.312Z,1003.17
2019-04-07T07:59:48.853Z,1003.19
2019-04-07T08:00:48.809Z,1003.21
2019-04-07T08:01:51.168Z,1003.22
2019-04-07T08:02:50.926Z,1003.25
2019-04-07T08:03:51.842Z,1003.26
2019-04-07T08:04:48.835Z,1003.31
2019-04-07T08:05:48.707Z,1003.36
2019-04-07T08:06:49.035Z,1003.43
2019-04-07T08:07:49.990Z,1003.48
2019-04-07T08:08:48.615Z,1003.58
2019-04-07T08:09:48.095Z,1003.71
2019-04-07T08:10:48.025Z,1003.83
2019-04-07T08:11:47.932Z,1003.96
2019-04-07T08:12:49.488Z,1004.13
2019-04-07T08:13:47.849Z,1004.35
2019-04-07T08:14:51.794Z,1004.52
2019-04-07T08:15:47.635Z,1004.58
2019-04-07T08:16:47.874Z,1004.97
2019-04-07T08:17:47.481Z,1005.14
2019-04-07T08:18:47.505Z,1005.25
2019-04-07T08:19:47.678Z,1005.58
2019-04-07T08:20:47.877Z,1005.85
2019-04-07T08:21:50.336Z,1006.06
2019-04-07T08:22:47.135Z,1006.07
2019-04-07T08:23:47.157Z,1006.37
2019-04-07T08:24:50.170Z,1006.67
2019-04-07T08:25:46.898Z,1006.88
2019-04-07T08:26:46.991Z,1007.02
2019-04-07T08:27:46.747Z,1007.02
2019-04-07T08:28:46.726Z,1006.72
2019-04-07T08:29:47.324Z,1006.83
2019-04-07T08:30:47.629Z,1007.52
2019-04-07T08:31:47.008Z,1008.11
2019-04-07T08:32:46.548Z,1008.61
2019-04-07T08:33:47.240Z,1008.55
2019-04-07T08:34:47.005Z,1008.20
2019-04-07T08:35:46.894Z,1008.30
2019-04-07T08:36:47.073Z,1008.65
2019-04-07T08:37:47.867Z,1009.50
2019-04-07T08:38:46.638Z,1009.97
2019-04-07T08:39:45.887Z,1009.92
2019-04-07T08:40:46.770Z,1010.09
2019-04-07T08:41:45.892Z,1010.29
2019-04-07T08:42:48.350Z,1010.36
2019-04-07T08:43:46.280Z,1010.41
2019-04-07T08:44:46.232Z,1010.99
2019-04-07T08:45:46.032Z,1011.43
2019-04-07T08:46:45.471Z,1011.43
2019-04-07T08:47:47.352Z,1011.23
2019-04-07T08:48:45.440Z,1011.10
2019-04-07T08:49:45.939Z,1011.19
2019-04-07T08:50:45.267Z,1011.52
2019-04-07T08:51:45.814Z,1011.63
2019-04-07T08:52:45.619Z,1011.28
2019-04-07T08:53:45.133Z,1010.52
2019-04-07T08:54:48.896Z,1010.11
2019-04-07T08:55:47.329Z,1009.75
2019-04-07T08:56:44.699Z,1009.12
2019-04-07T08:57:44.664Z,1008.59
2019-04-07T08:58:44.536Z,1008.21
2019-04-07T08:59:45.262Z,1007.96
2019-04-07T09:00:46.513Z,1007.66
2019-04-07T09:01:44.656Z,1007.43
2019-04-07T09:02:44.707Z,1007.36
2019-04-07T09:03:45.677Z,1007.11
2019-04-07T09:04:47.270Z,1006.73
2019-04-07T09:05:44.470Z,1006.42
2019-04-07T09:06:43.993Z,1006.64
2019-04-07T09:07:44.660Z,1006.23
2019-04-07T09:08:43.985Z,1005.56
2019-04-07T09:09:47.398Z,1005.15
2019-04-07T09:10:44.154Z,1005.11
2019-04-07T09:11:43.633Z,1005.01
2019-04-07T09:12:44.065Z,1004.75
2019-04-07T09:13:44.104Z,1004.48
2019-04-07T09:14:44.083Z,1004.27
2019-04-07T09:15:44.097Z,1003.97
2019-04-07T09:16:44.716Z,1003.78
2019-04-07T09:17:45.995Z,1003.65
2019-04-07T09:18:52.840Z,1003.45
2019-04-07T09:19:44.213Z,1003.40
2019-04-07T09:20:44.938Z,1003.30
2019-04-07T09:21:45.021Z,1003.25
2019-04-07T09:22:43.258Z,1003.09
2019-04-07T09:23:42.931Z,1003.04
2019-04-07T09:24:42.876Z,1003.08
2019-04-07T09:25:43.570Z,1003.08
2019-04-07T09:26:42.900Z,1003.02
2019-04-07T09:27:43.156Z,1003.02
2019-04-07T09:28:43.102Z,1003.08
2019-04-07T09:29:43.099Z,1003.10
2019-04-07T09:30:43.164Z,1003.06
2019-04-07T09:31:42.789Z,1002.99
2019-04-07T09:32:42.758Z,1003.06
2019-04-07T09:33:42.218Z,1003.04
2019-04-07T09:34:42.040Z,1002.99
2019-04-07T09:35:42.490Z,1002.99
2019-04-07T09:36:41.947Z,1002.99
2019-04-07T09:37:41.819Z,1002.99
2019-04-07T09:38:42.118Z,1003.03
2019-04-07T09:39:56.301Z,1003.10
2019-04-07T09:40:42.307Z,1003.13
2019-04-07T09:41:42.909Z,1003.09
2019-04-07T09:42:41.487Z,1003.07
2019-04-07T09:43:41.417Z,1002.88
2019-04-07T09:44:42.068Z,1003.11
2019-04-07T09:45:41.283Z,1003.12
2019-04-07T09:46:44.752Z,1003.16
2019-04-07T09:47:41.403Z,1003.14
2019-04-07T09:48:41.439Z,1003.21
2019-04-07T09:49:41.620Z,1003.31
2019-04-07T09:50:41.994Z,1003.26
2019-04-07T09:51:41.469Z,1003.01
2019-04-07T09:52:43.547Z,1002.75
2019-04-07T09:53:41.479Z,1002.70
2019-04-07T09:54:40.978Z,1002.67
2019-04-07T09:55:41.131Z,1002.76
2019-04-07T09:56:40.665Z,1002.74
2019-04-07T09:57:40.992Z,1002.67
2019-04-07T09:58:42.758Z,1002.67
2019-04-07T09:59:40.311Z,1002.72
2019-04-07T10:00:41.006Z,1002.76
2019-04-07T10:01:41.071Z,1002.84
2019-04-07T10:02:40.103Z,1003.19
2019-04-07T10:03:41.125Z,1002.98
2019-04-07T10:04:42.463Z,1003.69
2019-04-07T10:05:40.930Z,1002.80
2019-04-07T10:06:39.832Z,1002.73
2019-04-07T10:07:42.318Z,1002.62
2019-04-07T10:08:39.678Z,1002.62
2019-04-07T10:09:40.006Z,1003.15
2019-04-07T10:10:39.973Z,1002.96
2019-04-07T10:11:39.480Z,1003.11
2019-04-07T10:12:39.661Z,1002.72
2019-04-07T10:13:39.845Z,1003.46
2019-04-07T10:14:39.822Z,1003.79
2019-04-07T10:15:39.594Z,1003.81
2019-04-07T10:16:39.458Z,1003.71
2019-04-07T10:17:39.487Z,1003.75
2019-04-07T10:18:39.059Z,1003.00
2019-04-07T10:19:38.871Z,1003.70
2019-04-07T10:20:39.642Z,1003.70
2019-04-07T10:21:39.415Z,1003.69
2019-04-07T10:22:39.521Z,1003.65
2019-04-07T10:23:38.734Z,1003.60
2019-04-07T10:24:39.352Z,1003.51
2019-04-07T10:25:39.137Z,1003.65
2019-04-07T10:26:39.118Z,1003.68
2019-04-07T10:27:38.353Z,1003.69
2019-04-07T10:28:39.936Z,1003.72
2019-04-07T10:29:38.313Z,1003.70
2019-04-07T10:30:38.197Z,1003.69
2019-04-07T10:31:39.909Z,1003.66
2019-04-07T10:32:38.460Z,1003.63
2019-04-07T10:33:37.880Z,1003.58
2019-04-07T10:34:38.655Z,1003.64
2019-04-07T10:35:38.450Z,1003.58
2019-04-07T10:36:38.643Z,1003.60
2019-04-07T10:37:37.880Z,1003.66
2019-04-07T10:38:37.835Z,1003.66
2019-04-07T10:39:38.085Z,1003.67
2019-04-07T10:40:37.945Z,1003.78
2019-04-07T10:41:37.328Z,1003.76
2019-04-07T10:42:38.046Z,1003.81
2019-04-07T10:43:37.198Z,1003.88
2019-04-07T10:44:37.808Z,1003.94
2019-04-07T10:45:37.051Z,1004.09
2019-04-07T10:46:37.514Z,1004.07
2019-04-07T10:47:36.940Z,1004.11
2019-04-07T10:48:36.849Z,1004.09
2019-04-07T10:49:37.282Z,1004.15
2019-04-07T10:50:36.816Z,1004.14
2019-04-07T10:51:36.636Z,1004.08
2019-04-07T10:52:37.647Z,1004.05
2019-04-07T10:53:37.019Z,1003.99
2019-04-07T10:54:37.089Z,1003.90
2019-04-07T10:55:36.468Z,1003.89
2019-04-07T10:56:36.291Z,1003.89
2019-04-07T10:57:36.728Z,1003.85
2019-04-07T10:58:36.846Z,1003.86
2019-04-07T10:59:36.827Z,1003.89
2019-04-07T11:00:36.678Z,1003.88
2019-04-07T11:01:36.319Z,1003.91
2019-04-07T11:02:36.138Z,1003.92
2019-04-07T11:03:36.258Z,1003.97
2019-04-07T11:04:35.819Z,1003.93
2019-04-07T11:05:36.280Z,1004.18
2019-04-07T11:06:35.733Z,1004.07
2019-04-07T11:07:35.545Z,1004.11
2019-04-07T11:08:35.646Z,1004.15
2019-04-07T11:09:35.429Z,1004.10
2019-04-07T11:10:38.815Z,1004.07
2019-04-07T11:11:35.791Z,1004.09
2019-04-07T11:12:35.740Z,1004.10
2019-04-07T11:13:35.118Z,1004.02
2019-04-07T11:14:35.179Z,1003.98
2019-04-07T11:15:35.147Z,1003.94
2019-04-07T11:16:34.986Z,1003.90
2019-04-07T11:17:34.858Z,1003.84
2019-04-07T11:18:34.826Z,1003.84
2019-04-07T11:19:36.149Z,1003.84
2019-04-07T11:20:34.641Z,1003.69
2019-04-07T11:21:34.971Z,1002.67
2019-04-07T11:22:36.862Z,1003.84
2019-04-07T11:23:34.854Z,1003.82
2019-04-07T11:24:35.158Z,1003.87
2019-04-07T11:25:34.673Z,1003.80
2019-04-07T11:26:34.330Z,1003.79
2019-04-07T11:27:34.172Z,1003.68
2019-04-07T11:28:34.141Z,1003.71
2019-04-07T11:29:35.409Z,1003.59
2019-04-07T11:30:34.363Z,1003.44
2019-04-07T11:31:34.179Z,1003.36
2019-04-07T11:32:33.891Z,1003.26
2019-04-07T11:33:34.098Z,1003.24
2019-04-07T11:34:33.677Z,1003.21
2019-04-07T11:35:34.533Z,1003.25
2019-04-07T11:36:34.242Z,1003.37
2019-04-07T11:37:33.483Z,1003.48
2019-04-07T11:38:34.225Z,1003.37
2019-04-07T11:39:33.335Z,1003.42
2019-04-07T11:40:42.548Z,1003.46
2019-04-07T11:41:33.199Z,1003.48
2019-04-07T11:42:33.406Z,1003.36
2019-04-07T11:43:33.065Z,1003.40
2019-04-07T11:44:33.900Z,1003.33
2019-04-07T11:45:33.442Z,1003.19
2019-04-07T11:46:33.025Z,1003.15
2019-04-07T11:47:32.977Z,1003.04
2019-04-07T11:48:33.230Z,1003.06
2019-04-07T11:49:32.697Z,1002.94
2019-04-07T11:50:32.769Z,1002.80
2019-04-07T11:51:32.598Z,1002.70
2019-04-07T11:52:33.313Z,1002.43
2019-04-07T11:53:33.132Z,1002.69
2019-04-07T11:54:32.725Z,1003.12
2019-04-07T11:55:32.278Z,1003.01
2019-04-07T11:56:32.191Z,1002.60
2019-04-07T11:57:32.132Z,1003.10
2019-04-07T11:58:33.717Z,1002.49
2019-04-07T11:59:32.807Z,1003.02
2019-04-07T12:00:31.914Z,1002.35
2019-04-07T12:01:31.840Z,1002.33
2019-04-07T12:02:31.944Z,1002.34
2019-04-07T12:03:31.699Z,1002.30
2019-04-07T12:04:31.691Z,1002.86